Time;durP1;ratioP1;P1;durP2;ratioP2;P2;SDS_P1;SDS_P2;PMS_P1;PMS_P2;Temp;Humidity;BMP_temperature;BMP_pressure;BME280_temperature;BME280_humidity;BME280_pressure;Samples;Min_cycle;Max_cycle;Signal;HPM_P1;HPM_P2
2023/01/22 00:00:30;;;;;;;11.52;6.88;;;3.00;5.10;;;;;;5071048;28;20028;-74
2023/01/22 00:02:56;;;;;;;13.90;7.28;;;3.00;6.30;;;;;;5070925;28;20444;-72
2023/01/22 00:05:21;;;;;;;13.30;7.93;;;3.00;8.70;;;;;;5070423;28;20078;-72
2023/01/22 00:07:47;;;;;;;12.10;7.30;;;3.00;14.80;;;;;;5070887;28;20035;-72
2023/01/22 00:10:12;;;;;;;13.07;7.72;;;3.00;22.10;;;;;;5070709;28;20032;-73
2023/01/22 00:12:38;;;;;;;12.80;7.40;;;3.00;29.00;;;;;;5070650;28;20529;-73
2023/01/22 00:15:04;;;;;;;16.48;7.75;;;3.00;30.00;;;;;;5070210;28;20023;-71
2023/01/22 00:17:29;;;;;;;14.63;7.90;;;3.00;30.90;;;;;;5069780;28;20501;-72
2023/01/22 00:19:55;;;;;;;14.52;7.68;;;3.00;24.40;;;;;;5071627;28;20089;-71
2023/01/22 00:22:21;;;;;;;15.00;8.27;;;3.00;23.20;;;;;;5072045;28;20033;-73
2023/01/22 00:24:46;;;;;;;13.55;7.93;;;3.00;26.30;;;;;;5071756;28;20060;-73
2023/01/22 00:27:12;;;;;;;13.57;8.45;;;3.00;28.10;;;;;;5070936;28;20513;-72
2023/01/22 00:29:37;;;;;;;14.20;7.97;;;3.00;28.90;;;;;;5071570;28;20311;-74
2023/01/22 00:32:03;;;;;;;15.65;7.82;;;3.00;30.30;;;;;;5071560;28;20027;-71
2023/01/22 00:34:29;;;;;;;20.23;8.27;;;3.00;28.50;;;;;;5071976;28;20024;-74
2023/01/22 00:36:54;;;;;;;14.10;7.75;;;2.90;36.20;;;;;;5070924;28;20025;-74
2023/01/22 00:39:20;;;;;;;15.23;7.90;;;2.90;31.10;;;;;;5071618;28;20028;-74
2023/01/22 00:41:45;;;;;;;16.25;7.90;;;2.90;33.10;;;;;;5071659;28;20029;-74
2023/01/22 00:44:10;;;;;;;14.02;7.82;;;2.90;33.90;;;;;;5071638;28;20577;-72
2023/01/22 00:46:36;;;;;;;15.30;7.55;;;2.90;35.10;;;;;;5070709;28;20505;-72
2023/01/22 00:49:02;;;;;;;16.23;7.93;;;2.90;37.40;;;;;;5071733;28;20035;-74
2023/01/22 00:51:28;;;;;;;11.65;7.45;;;2.90;32.50;;;;;;5071364;28;20045;-74
2023/01/22 00:53:54;;;;;;;13.57;7.63;;;3.00;34.50;;;;;;5071257;28;20017;-71
2023/01/22 00:56:20;;;;;;;15.52;8.63;;;2.90;30.90;;;;;;5070599;28;20044;-73
2023/01/22 00:58:45;;;;;;;12.82;7.55;;;3.00;32.20;;;;;;5071463;28;20025;-73
2023/01/22 01:01:13;;;;;;;13.25;8.30;;;3.00;34.20;;;;;;5069170;28;20109;-75
2023/01/22 01:03:38;;;;;;;13.07;7.63;;;2.90;34.60;;;;;;5071154;28;20017;-73
2023/01/22 01:06:17;;;;;;;14.50;8.07;;;2.90;37.60;;;;;;5069367;28;20025;-73
2023/01/22 01:08:43;;;;;;;13.93;7.68;;;2.90;42.30;;;;;;5072409;28;20016;-73
2023/01/22 01:11:13;;;;;;;15.18;7.30;;;2.90;38.50;;;;;;5074849;28;20032;-72
2023/01/22 01:13:41;;;;;;;10.05;7.25;;;3.00;38.20;;;;;;5074959;28;20523;-72
2023/01/22 01:16:22;;;;;;;11.25;7.43;;;3.00;36.40;;;;;;5074293;28;20032;-73
2023/01/22 01:18:48;;;;;;;15.40;7.53;;;3.00;32.50;;;;;;5075037;28;20043;-72
2023/01/22 01:21:15;;;;;;;14.75;6.78;;;3.10;34.70;;;;;;5074877;28;20150;-73
2023/01/22 01:23:41;;;;;;;9.43;6.82;;;3.10;33.80;;;;;;5075378;28;20028;-72
2023/01/22 01:26:09;;;;;;;12.68;7.28;;;3.10;36.50;;;;;;5074106;28;20104;-72
2023/01/22 01:28:36;;;;;;;11.52;6.70;;;3.00;37.20;;;;;;5074406;28;20040;-72
2023/01/22 01:31:03;;;;;;;10.57;5.75;;;3.00;40.60;;;;;;5075177;28;20024;-73
2023/01/22 01:33:29;;;;;;;14.07;6.90;;;3.00;39.00;;;;;;5074950;28;20024;-73
2023/01/22 01:35:59;;;;;;;7.40;5.72;;;3.00;31.50;;;;;;5073775;28;20031;-74
2023/01/22 01:38:25;;;;;;;13.73;5.93;;;3.00;33.40;;;;;;5074543;28;20060;-73
2023/01/22 01:40:50;;;;;;;50.95;28.10;;;3.00;36.20;;;;;;5056391;28;20446;-72
2023/01/22 01:43:16;;;;;;;24.25;11.90;;;3.00;33.20;;;;;;5074417;28;20104;-74
2023/01/22 01:45:42;;;;;;;18.38;9.50;;;3.00;35.10;;;;;;5073553;28;21056;-72
2023/01/22 01:48:18;;;;;;;13.32;7.10;;;2.90;36.30;;;;;;5074219;28;20020;-73
2023/01/22 01:50:48;;;;;;;11.52;6.38;;;2.90;40.80;;;;;;5074484;28;20024;-71
2023/01/22 01:53:14;;;;;;;12.05;6.07;;;2.90;39.60;;;;;;5074549;28;20025;-72
2023/01/22 01:55:40;;;;;;;7.75;5.85;;;2.90;39.30;;;;;;5073779;28;20029;-73
2023/01/22 01:58:20;;;;;;;8.60;5.82;;;2.90;42.10;;;;;;5074014;28;20099;-74
2023/01/22 02:00:49;;;;;;;12.85;6.75;;;2.90;42.50;;;;;;5074108;28;20039;-73
2023/01/22 02:03:14;;;;;;;10.82;5.45;;;2.90;45.90;;;;;;5074571;28;20024;-72
2023/01/22 02:05:40;;;;;;;13.45;6.82;;;2.90;46.20;;;;;;5073367;28;20469;-73
2023/01/22 02:08:07;;;;;;;9.85;6.35;;;2.80;47.30;;;;;;5074275;28;20446;-73
2023/01/22 02:10:32;;;;;;;13.00;6.22;;;3.00;43.40;;;;;;5071720;28;20035;-72
2023/01/22 02:13:04;;;;;;;9.73;5.82;;;2.90;45.80;;;;;;5074008;28;20092;-73
2023/01/22 02:15:29;;;;;;;8.80;5.93;;;2.90;44.20;;;;;;5073097;28;20486;-72
2023/01/22 02:17:55;;;;;;;10.48;6.40;;;2.90;48.70;;;;;;5073692;28;20099;-73
2023/01/22 02:20:20;;;;;;;12.05;6.65;;;2.90;47.10;;;;;;5072856;28;20111;-74
2023/01/22 02:22:46;;;;;;;9.95;6.10;;;2.90;50.80;;;;;;5073392;28;20021;-73
2023/01/22 02:25:11;;;;;;;9.68;5.95;;;2.80;52.50;;;;;;5073606;28;20029;-72
2023/01/22 02:27:37;;;;;;;9.82;5.95;;;2.90;50.00;;;;;;5072891;28;20036;-72
2023/01/22 02:30:03;;;;;;;13.18;6.50;;;2.90;44.20;;;;;;5073530;28;20024;-74
2023/01/22 02:32:29;;;;;;;16.92;6.25;;;2.90;48.60;;;;;;5073365;28;20161;-74
2023/01/22 02:34:55;;;;;;;13.82;6.32;;;2.90;47.80;;;;;;5073471;28;20496;-71
2023/01/22 02:37:20;;;;;;;14.60;5.85;;;2.90;45.50;;;;;;5072654;28;20019;-72
2023/01/22 02:39:46;;;;;;;12.85;6.38;;;3.00;45.90;;;;;;5073540;28;20029;-72
2023/01/22 02:42:12;;;;;;;13.75;6.55;;;3.00;46.40;;;;;;5073073;28;20028;-71
2023/01/22 02:44:37;;;;;;;10.68;5.35;;;3.00;43.50;;;;;;5073073;28;20020;-72
2023/01/22 02:47:03;;;;;;;9.50;6.13;;;3.00;43.90;;;;;;5072450;28;20064;-71
2023/01/22 02:49:28;;;;;;;11.55;5.75;;;3.00;45.40;;;;;;5072954;28;20549;-72
2023/01/22 02:51:54;;;;;;;9.35;5.97;;;3.00;43.70;;;;;;5072734;28;20028;-75
2023/01/22 02:54:19;;;;;;;9.30;5.63;;;3.00;45.50;;;;;;5072973;28;20047;-71
2023/01/22 02:56:45;;;;;;;11.75;6.40;;;3.00;45.60;;;;;;5072171;28;20025;-71
2023/01/22 02:59:10;;;;;;;10.93;6.10;;;3.00;45.40;;;;;;5073049;28;20090;-71
2023/01/22 03:01:37;;;;;;;11.00;5.68;;;3.00;46.70;;;;;;5072729;28;20054;-72
2023/01/22 03:04:10;;;;;;;12.32;6.00;;;3.00;45.90;;;;;;5072632;28;20121;-71
2023/01/22 03:06:41;;;;;;;9.73;6.35;;;3.00;46.60;;;;;;5072041;28;20024;-73
2023/01/22 03:09:08;;;;;;;10.70;6.07;;;3.00;45.10;;;;;;5072567;28;20028;-71
2023/01/22 03:11:36;;;;;;;10.80;6.32;;;3.00;47.50;;;;;;5072789;28;20036;-75
2023/01/22 03:22:15;;;;;;;8.43;5.57;;;3.00;57.20;;;;;;5072640;28;20038;-73
2023/01/22 03:24:42;;;;;;;13.85;6.78;;;3.10;50.00;;;;;;5072324;28;20099;-73
2023/01/22 03:27:08;;;;;;;12.40;6.65;;;3.10;60.40;;;;;;5071564;28;20402;-74
2023/01/22 03:29:37;;;;;;;11.70;7.03;;;3.10;54.00;;;;;;5072300;28;20020;-72
2023/01/22 03:32:03;;;;;;;10.70;6.57;;;3.10;54.60;;;;;;5072414;28;20462;-73
2023/01/22 03:34:28;;;;;;;16.20;6.90;;;3.20;53.20;;;;;;5072485;28;20029;-74
2023/01/22 03:36:54;;;;;;;11.98;6.30;;;3.20;50.60;;;;;;5071824;28;20046;-73
2023/01/22 03:39:20;;;;;;;15.48;6.22;;;3.10;50.90;;;;;;5072650;28;20077;-75
2023/01/22 03:41:45;;;;;;;17.80;7.00;;;3.10;52.10;;;;;;5072344;28;20024;-75
2023/01/22 03:44:13;;;;;;;13.32;6.75;;;3.20;52.70;;;;;;5072774;28;20024;-72
2023/01/22 03:46:39;;;;;;;11.05;5.88;;;3.20;51.40;;;;;;5072040;28;20036;-73
2023/01/22 03:49:11;;;;;;;10.02;5.90;;;3.20;53.10;;;;;;5054584;28;20112;-71
2023/01/22 03:51:37;;;;;;;11.20;6.13;;;3.20;52.60;;;;;;5072245;28;20012;-73
2023/01/22 03:54:03;;;;;;;11.35;5.97;;;3.20;50.80;;;;;;5072161;28;20082;-73
2023/01/22 03:56:28;;;;;;;10.73;6.22;;;3.20;49.50;;;;;;5071321;28;20059;-72
2023/01/22 03:58:55;;;;;;;10.43;5.78;;;3.20;50.40;;;;;;5072444;28;20093;-73
2023/01/22 04:01:23;;;;;;;11.80;6.40;;;3.20;49.50;;;;;;5072299;28;20032;-73
2023/01/22 04:03:49;;;;;;;12.88;5.95;;;3.20;53.40;;;;;;5072248;28;20025;-73
2023/01/22 04:06:15;;;;;;;11.45;6.50;;;3.10;51.20;;;;;;5071783;28;20473;-72
2023/01/22 04:08:43;;;;;;;11.07;5.65;;;3.20;52.80;;;;;;5072712;28;20024;-72
2023/01/22 04:11:09;;;;;;;12.77;5.82;;;3.10;53.90;;;;;;5071815;28;20491;-72
2023/01/22 04:13:37;;;;;;;17.85;6.15;;;3.10;53.90;;;;;;5072008;28;20029;-72
2023/01/22 04:16:03;;;;;;;13.30;6.05;;;3.20;51.10;;;;;;5071566;28;20016;-72
2023/01/22 04:18:29;;;;;;;10.77;5.85;;;3.10;54.40;;;;;;5072417;28;20020;-71
2023/01/22 04:20:54;;;;;;;13.82;6.32;;;3.10;56.10;;;;;;5071815;28;20027;-72
2023/01/22 04:23:21;;;;;;;12.18;6.53;;;3.10;57.80;;;;;;5072543;28;20047;-72
2023/01/22 04:25:47;;;;;;;11.77;5.85;;;3.10;57.30;;;;;;5071415;28;20028;-71
2023/01/22 04:28:16;;;;;;;12.35;5.78;;;3.20;56.70;;;;;;5071689;28;20027;-71
2023/01/22 04:30:42;;;;;;;13.65;6.80;;;3.10;55.80;;;;;;5071739;28;20035;-72
2023/01/22 04:33:08;;;;;;;16.30;6.15;;;3.20;56.40;;;;;;5071776;28;20054;-72
2023/01/22 04:35:35;;;;;;;9.80;5.65;;;3.20;53.60;;;;;;5071044;28;20591;-72
2023/01/22 04:38:02;;;;;;;11.02;5.72;;;3.20;53.10;;;;;;5071445;28;20428;-72
2023/01/22 04:40:27;;;;;;;12.77;5.45;;;3.20;53.30;;;;;;5071482;28;20029;-73
2023/01/22 04:42:53;;;;;;;11.02;5.82;;;3.20;53.50;;;;;;5071332;28;20024;-72
2023/01/22 04:45:18;;;;;;;14.25;6.43;;;3.20;55.80;;;;;;5074951;28;20056;-72
2023/01/22 04:47:46;;;;;;;13.88;5.38;;;3.30;50.60;;;;;;5075071;28;20032;-73
2023/01/22 04:50:17;;;;;;;10.57;5.22;;;3.20;53.40;;;;;;5075241;28;20474;-72
2023/01/22 04:52:43;;;;;;;12.65;5.80;;;3.20;50.90;;;;;;5075028;28;20028;-72
2023/01/22 04:55:09;;;;;;;18.45;6.57;;;3.20;54.10;;;;;;5075247;28;20021;-75
2023/01/22 04:57:34;;;;;;;12.32;5.80;;;3.20;53.90;;;;;;5074744;28;20046;-73
2023/01/22 05:00:00;;;;;;;14.18;5.68;;;3.20;54.20;;;;;;5075231;28;20064;-73
2023/01/22 05:02:26;;;;;;;12.65;5.68;;;3.20;54.50;;;;;;5077237;28;20125;-73
2023/01/22 05:04:51;;;;;;;10.88;5.80;;;3.30;54.70;;;;;;5076497;28;20024;-72
2023/01/22 05:07:17;;;;;;;10.32;5.35;;;3.30;50.60;;;;;;5074986;28;20111;-73
2023/01/22 05:09:42;;;;;;;9.45;5.35;;;3.30;53.50;;;;;;5080423;28;20304;-73
2023/01/22 05:12:09;;;;;;;14.77;5.30;;;3.20;51.40;;;;;;5059686;28;20020;-73
2023/01/22 05:14:35;;;;;;;15.20;6.00;;;3.30;55.00;;;;;;5077707;28;20028;-74
2023/01/22 05:17:00;;;;;;;8.82;5.72;;;3.20;52.80;;;;;;5042233;28;20074;-73
2023/01/22 05:19:27;;;;;;;12.40;5.65;;;3.20;53.40;;;;;;5059697;28;20063;-74
2023/01/22 05:21:53;;;;;;;11.48;5.80;;;3.20;53.30;;;;;;5059795;28;20032;-73
2023/01/22 05:24:18;;;;;;;11.32;5.72;;;3.30;53.60;;;;;;5057608;28;20032;-74
2023/01/22 05:26:44;;;;;;;12.55;5.82;;;3.30;51.80;;;;;;5074242;28;20381;-73
2023/01/22 05:29:10;;;;;;;14.23;6.05;;;3.30;54.00;;;;;;5074916;28;20036;-74
2023/01/22 05:31:35;;;;;;;13.95;6.38;;;3.30;52.40;;;;;;5074454;28;20079;-75
2023/01/22 05:34:02;;;;;;;12.70;5.18;;;3.30;53.50;;;;;;5074680;28;20024;-75
2023/01/22 05:36:27;;;;;;;10.98;5.93;;;3.30;51.90;;;;;;5073570;28;20017;-76
2023/01/22 05:38:53;;;;;;;11.38;5.50;;;3.30;50.30;;;;;;5074671;28;20031;-73
2023/01/22 05:41:18;;;;;;;15.52;6.93;;;3.30;51.50;;;;;;5074294;28;20025;-72
2023/01/22 05:43:44;;;;;;;15.25;6.10;;;3.30;53.40;;;;;;5074416;28;20074;-72
2023/01/22 05:46:10;;;;;;;12.85;5.70;;;3.40;50.70;;;;;;5074223;28;20033;-74
2023/01/22 05:48:35;;;;;;;13.60;6.03;;;3.40;52.40;;;;;;5075283;28;20363;-74
2023/01/22 05:51:08;;;;;;;14.50;6.88;;;3.40;50.00;;;;;;5075107;28;20033;-74
2023/01/22 05:53:34;;;;;;;17.30;6.80;;;3.40;52.10;;;;;;5074209;28;20099;-73
2023/01/22 05:56:01;;;;;;;14.80;5.95;;;3.40;50.50;;;;;;5072207;28;20036;-74
2023/01/22 05:58:30;;;;;;;16.92;5.65;;;3.40;52.40;;;;;;5070859;28;20074;-75
2023/01/22 06:00:56;;;;;;;12.30;5.65;;;3.50;50.70;;;;;;5072376;28;20359;-74
2023/01/22 06:03:22;;;;;;;16.35;6.03;;;3.40;52.80;;;;;;5073775;28;20032;-73
2023/01/22 06:05:57;;;;;;;17.95;6.82;;;3.40;52.40;;;;;;5073837;28;20433;-72
2023/01/22 06:08:22;;;;;;;19.05;7.05;;;3.40;50.60;;;;;;5073833;28;20103;-72
2023/01/22 06:10:48;;;;;;;18.17;7.07;;;3.40;48.90;;;;;;5077023;28;20087;-74
2023/01/22 06:13:13;;;;;;;18.00;6.95;;;3.40;53.00;;;;;;5080433;28;20036;-73
2023/01/22 06:15:39;;;;;;;13.70;5.93;;;3.40;52.90;;;;;;5082496;28;20075;-74
2023/01/22 06:18:04;;;;;;;15.48;6.63;;;3.40;53.30;;;;;;5082350;28;20513;-74
2023/01/22 06:20:30;;;;;;;16.88;6.28;;;3.40;52.00;;;;;;5076283;28;20063;-74
2023/01/22 06:22:55;;;;;;;12.63;5.45;;;3.40;54.40;;;;;;5073406;28;20028;-73
2023/01/22 06:25:21;;;;;;;12.60;6.38;;;3.30;56.70;;;;;;5072406;28;20036;-75
2023/01/22 06:27:46;;;;;;;14.40;6.32;;;3.30;57.80;;;;;;5072278;28;20031;-72
2023/01/22 06:30:12;;;;;;;13.60;6.30;;;3.40;55.80;;;;;;5073306;28;20036;-71
2023/01/22 06:32:37;;;;;;;12.70;6.43;;;3.40;55.30;;;;;;5073223;28;20036;-72
2023/01/22 06:35:03;;;;;;;13.88;6.25;;;3.30;55.50;;;;;;5073628;28;20021;-74
2023/01/22 06:37:29;;;;;;;16.02;6.45;;;3.40;55.10;;;;;;5073265;28;20027;-72
2023/01/22 06:39:55;;;;;;;15.77;6.90;;;3.40;55.80;;;;;;5072107;28;20071;-73
2023/01/22 06:42:20;;;;;;;16.00;5.93;;;3.40;55.20;;;;;;5071738;28;20493;-74
2023/01/22 06:44:46;;;;;;;14.38;5.65;;;3.40;55.30;;;;;;5073115;28;20060;-74
2023/01/22 06:47:12;;;;;;;14.13;6.50;;;3.40;55.90;;;;;;5074187;28;20025;-74
2023/01/22 06:49:37;;;;;;;12.98;6.00;;;3.40;61.40;;;;;;5075444;28;20028;-74
2023/01/22 06:52:05;;;;;;;16.20;6.35;;;3.40;60.40;;;;;;5076732;28;20101;-75
2023/01/22 06:54:31;;;;;;;14.32;5.85;;;3.50;59.50;;;;;;5069559;28;20016;-74
2023/01/22 06:56:56;;;;;;;16.95;5.35;;;3.40;59.80;;;;;;5076922;28;20028;-75
2023/01/22 06:59:22;;;;;;;17.40;7.00;;;3.40;62.30;;;;;;5056853;28;20024;-74
2023/01/22 07:01:47;;;;;;;13.18;5.78;;;3.40;64.00;;;;;;5074159;28;20382;-73
2023/01/22 07:04:13;;;;;;;11.25;5.50;;;3.50;61.30;;;;;;5073137;28;20044;-73
2023/01/22 07:06:38;;;;;;;13.07;5.60;;;3.50;62.20;;;;;;5071895;28;20036;-75
2023/01/22 07:09:04;;;;;;;13.93;5.97;;;3.50;57.40;;;;;;5072529;28;20070;-75
2023/01/22 07:11:29;;;;;;;16.02;6.30;;;3.50;60.80;;;;;;5072465;28;20035;-76
2023/01/22 07:13:55;;;;;;;11.93;5.82;;;3.50;65.90;;;;;;5072720;28;20478;-73
2023/01/22 07:16:20;;;;;;;16.75;6.93;;;3.50;67.40;;;;;;5072152;28;20024;-72
2023/01/22 07:18:46;;;;;;;14.40;6.70;;;3.50;68.90;;;;;;5073269;28;20028;-74
2023/01/22 07:21:11;;;;;;;16.33;6.43;;;3.50;68.50;;;;;;5072489;28;20405;-73
2023/01/22 07:23:37;;;;;;;12.98;6.00;;;3.50;68.70;;;;;;5072436;28;20029;-73
2023/01/22 07:26:03;;;;;;;17.63;5.90;;;3.50;72.40;;;;;;5074176;28;20059;-72
2023/01/22 07:28:28;;;;;;;16.48;6.75;;;3.50;72.10;;;;;;5056780;28;20028;-72
2023/01/22 07:30:55;;;;;;;20.90;7.63;;;3.50;71.10;;;;;;5074315;28;20020;-71
2023/01/22 07:33:21;;;;;;;17.60;6.30;;;3.50;74.80;;;;;;5073637;28;20149;-71
2023/01/22 07:35:54;;;;;;;13.65;6.25;;;3.60;72.90;;;;;;5071926;28;20099;-71
2023/01/22 07:38:19;;;;;;;16.10;6.95;;;3.50;74.80;;;;;;5073653;28;20025;-74
2023/01/22 07:40:45;;;;;;;20.38;6.55;;;3.50;75.30;;;;;;5057034;28;20034;-73
2023/01/22 07:43:13;;;;;;;16.88;5.85;;;3.50;79.40;;;;;;5076564;28;20103;-74
2023/01/22 07:45:39;;;;;;;21.27;6.47;;;3.60;82.30;;;;;;5073202;28;20038;-74
2023/01/22 07:48:09;;;;;;;19.73;7.03;;;3.50;82.00;;;;;;5073676;28;20472;-74
2023/01/22 07:50:35;;;;;;;26.77;6.50;;;3.60;83.10;;;;;;5074437;28;20044;-75
2023/01/22 07:53:01;;;;;;;15.45;7.35;;;3.60;81.70;;;;;;5070388;28;20025;-72
2023/01/22 07:55:28;;;;;;;16.40;6.03;;;3.60;80.50;;;;;;5071835;28;20028;-72
2023/01/22 07:58:02;;;;;;;19.45;6.32;;;3.60;80.10;;;;;;5072406;28;20066;-72
2023/01/22 08:00:28;;;;;;;13.10;6.43;;;3.70;83.40;;;;;;5072001;28;20038;-73
2023/01/22 08:02:53;;;;;;;17.60;6.95;;;3.60;81.90;;;;;;5071911;28;20028;-72
2023/01/22 08:05:19;;;;;;;26.80;6.35;;;3.60;83.10;;;;;;5071577;28;20438;-73
2023/01/22 08:07:44;;;;;;;18.67;6.38;;;3.70;86.10;;;;;;5071624;28;20065;-73
2023/01/22 08:10:10;;;;;;;18.77;6.88;;;3.70;86.20;;;;;;5072356;28;20420;-72
2023/01/22 08:12:37;;;;;;;22.73;7.75;;;3.70;85.50;;;;;;5071500;28;20021;-72
2023/01/22 08:15:03;;;;;;;19.65;6.63;;;3.70;85.70;;;;;;5071851;28;20024;-72
2023/01/22 08:17:29;;;;;;;18.10;6.53;;;3.70;84.50;;;;;;5071250;28;20203;-72
2023/01/22 08:19:54;;;;;;;15.73;6.68;;;3.80;86.70;;;;;;5071769;28;20100;-72
2023/01/22 08:22:20;;;;;;;20.60;7.32;;;3.80;84.20;;;;;;5071420;28;20051;-73
2023/01/22 08:24:45;;;;;;;21.17;6.38;;;3.80;82.50;;;;;;5071668;28;20131;-73
2023/01/22 08:27:11;;;;;;;17.88;6.43;;;3.90;83.40;;;;;;5071475;28;20454;-73
2023/01/22 08:29:36;;;;;;;19.20;6.80;;;3.90;83.40;;;;;;5073494;28;20036;-72
2023/01/22 08:32:02;;;;;;;18.88;6.47;;;3.80;83.80;;;;;;5072309;28;20021;-73
2023/01/22 08:34:27;;;;;;;19.48;7.95;;;3.80;85.70;;;;;;5071543;28;20021;-72
2023/01/22 08:36:53;;;;;;;15.10;6.60;;;3.80;84.90;;;;;;5071007;28;20029;-72
2023/01/22 08:39:19;;;;;;;18.15;6.38;;;3.90;86.40;;;;;;5071639;28;20424;-73
2023/01/22 08:41:44;;;;;;;16.98;6.30;;;3.90;87.80;;;;;;5071509;28;20029;-72
2023/01/22 08:44:13;;;;;;;24.85;6.65;;;4.00;82.00;;;;;;5071262;28;20108;-72
2023/01/22 08:46:39;;;;;;;13.45;6.20;;;4.00;82.80;;;;;;5070850;28;20572;-72
2023/01/22 08:49:06;;;;;;;18.00;7.00;;;4.00;84.80;;;;;;5071528;28;20028;-72
2023/01/22 08:51:32;;;;;;;20.63;6.70;;;4.00;83.00;;;;;;5071338;28;20114;-76
2023/01/22 08:53:57;;;;;;;20.00;6.13;;;4.00;79.00;;;;;;5071853;28;20497;-73
2023/01/22 08:56:23;;;;;;;19.85;6.45;;;3.90;82.50;;;;;;5071207;28;20462;-72
2023/01/22 08:58:50;;;;;;;19.58;6.38;;;3.90;83.50;;;;;;5071836;28;20032;-73
2023/01/22 09:01:17;;;;;;;17.65;6.10;;;4.00;84.90;;;;;;5072341;28;20032;-75
2023/01/22 09:03:42;;;;;;;25.95;5.85;;;4.00;85.90;;;;;;5071268;28;20031;-73
2023/01/22 09:06:08;;;;;;;26.13;6.30;;;4.00;83.60;;;;;;5070626;28;20298;-72
2023/01/22 09:08:34;;;;;;;20.67;6.38;;;4.00;83.90;;;;;;5079032;28;20106;-74
2023/01/22 09:10:59;;;;;;;30.02;7.97;;;4.00;85.70;;;;;;5081935;28;20060;-73
2023/01/22 09:13:25;;;;;;;24.52;6.20;;;4.10;84.70;;;;;;5077935;28;20029;-73
2023/01/22 09:15:54;;;;;;;16.58;6.07;;;4.10;80.60;;;;;;5072328;28;20079;-73
2023/01/22 09:18:19;;;;;;;17.88;5.93;;;4.10;78.60;;;;;;5071318;28;20490;-75
2023/01/22 09:20:45;;;;;;;21.40;6.75;;;4.10;82.10;;;;;;5052250;28;20024;-72
2023/01/22 09:23:10;;;;;;;20.38;6.63;;;4.10;80.80;;;;;;5070509;28;20037;-74
2023/01/22 09:25:36;;;;;;;21.23;6.45;;;4.10;82.40;;;;;;5069339;28;20113;-73
2023/01/22 09:28:03;;;;;;;19.00;6.32;;;4.20;81.40;;;;;;5070354;28;20021;-73
2023/01/22 09:30:31;;;;;;;18.38;6.30;;;4.20;79.60;;;;;;5072628;28;20685;-73
2023/01/22 09:32:56;;;;;;;23.63;6.20;;;4.20;80.70;;;;;;5073639;28;20024;-74
2023/01/22 09:35:22;;;;;;;17.05;6.13;;;4.30;79.20;;;;;;5073220;28;20020;-73
2023/01/22 09:37:47;;;;;;;20.00;6.32;;;4.30;77.10;;;;;;5073647;28;20020;-73
2023/01/22 09:40:20;;;;;;;18.00;5.40;;;4.20;78.00;;;;;;5075149;28;20531;-75
2023/01/22 09:42:46;;;;;;;22.00;6.43;;;4.20;79.80;;;;;;5060226;28;20032;-76
2023/01/22 09:45:13;;;;;;;15.98;5.45;;;4.20;82.00;;;;;;5073766;28;20052;-74
2023/01/22 09:47:50;;;;;;;23.25;7.35;;;4.20;81.20;;;;;;5073140;28;20455;-73
2023/01/22 09:50:20;;;;;;;16.05;6.25;;;4.30;81.90;;;;;;5073933;28;20020;-73
2023/01/22 09:52:48;;;;;;;21.27;6.53;;;4.30;78.70;;;;;;5073018;28;20033;-73
2023/01/22 09:55:16;;;;;;;24.00;6.40;;;4.30;82.10;;;;;;5074180;28;20147;-73
2023/01/22 09:57:45;;;;;;;19.55;6.32;;;4.30;82.20;;;;;;5073248;28;20473;-74
2023/01/22 10:00:21;;;;;;;20.88;5.93;;;4.30;81.20;;;;;;5073121;28;20378;-73
2023/01/22 10:02:53;;;;;;;18.52;6.13;;;4.30;79.70;;;;;;5073365;28;20085;-75
2023/01/22 10:05:31;;;;;;;22.63;6.00;;;4.30;81.80;;;;;;5081738;28;20051;-76
2023/01/22 10:08:12;;;;;;;29.00;6.25;;;4.30;82.90;;;;;;5075655;28;20028;-74
2023/01/22 10:10:38;;;;;;;22.23;6.53;;;4.30;83.90;;;;;;5072860;28;20039;-74
2023/01/22 10:13:26;;;;;;;16.35;6.18;;;4.40;81.60;;;;;;5073194;28;20028;-76
2023/01/22 10:15:53;;;;;;;21.42;6.57;;;4.40;81.10;;;;;;5072734;28;20085;-73
2023/01/22 10:18:41;;;;;;;17.08;6.00;;;4.40;76.50;;;;;;5074079;28;20104;-74
2023/01/22 10:21:22;;;;;;;21.48;6.35;;;4.50;75.50;;;;;;5074831;28;20025;-74
2023/01/22 10:23:49;;;;;;;23.25;7.10;;;4.40;76.40;;;;;;5073551;28;20025;-74
2023/01/22 10:26:34;;;;;;;19.75;6.40;;;4.40;78.50;;;;;;5072841;28;20082;-74
2023/01/22 10:29:12;;;;;;;22.48;6.05;;;4.40;80.30;;;;;;5074166;28;20017;-76
2023/01/22 10:31:44;;;;;;;21.60;6.38;;;4.50;79.80;;;;;;5074662;28;20036;-75
2023/01/22 10:34:15;;;;;;;15.38;6.00;;;4.50;80.00;;;;;;5075160;28;20511;-73
2023/01/22 10:36:49;;;;;;;24.50;5.75;;;4.50;78.90;;;;;;5074891;28;20036;-73
2023/01/22 10:39:16;;;;;;;19.02;6.30;;;4.60;81.30;;;;;;5076369;28;20024;-73
2023/01/22 10:41:44;;;;;;;17.77;5.85;;;4.60;79.60;;;;;;5076752;28;20025;-75
2023/01/22 10:44:24;;;;;;;19.55;6.07;;;4.60;76.00;;;;;;5059469;28;20047;-74
2023/01/22 10:46:51;;;;;;;16.25;5.65;;;4.60;78.00;;;;;;5074438;28;20051;-74
2023/01/22 10:49:21;;;;;;;22.45;5.35;;;4.60;75.10;;;;;;5057567;28;20188;-73
2023/01/22 10:52:03;;;;;;;23.58;8.32;;;4.70;75.90;;;;;;5055824;28;20552;-73
2023/01/22 10:54:33;;;;;;;26.30;6.75;;;4.70;77.20;;;;;;5073061;28;20070;-73
2023/01/22 10:57:04;;;;;;;23.73;5.72;;;4.80;80.10;;;;;;5072434;28;20028;-73
2023/01/22 10:59:30;;;;;;;23.98;6.05;;;4.90;76.60;;;;;;5072977;28;20556;-73
2023/01/22 11:01:58;;;;;;;15.10;5.57;;;4.90;74.70;;;;;;5073105;28;20029;-73
2023/01/22 11:04:30;;;;;;;20.98;6.25;;;4.90;70.40;;;;;;5073888;28;20021;-73
2023/01/22 11:07:03;;;;;;;17.40;5.18;;;4.90;70.60;;;;;;5075364;28;20035;-74
2023/01/22 11:09:46;;;;;;;18.20;5.05;;;5.00;72.60;;;;;;5076631;28;20029;-73
2023/01/22 11:12:38;;;;;;;23.05;5.30;;;5.10;63.90;;;;;;5073427;28;20055;-73
2023/01/22 11:15:21;;;;;;;18.15;4.88;;;5.10;57.10;;;;;;5061101;28;20094;-73
2023/01/22 11:17:54;;;;;;;27.35;5.07;;;5.10;56.60;;;;;;5073680;28;20021;-71
2023/01/22 11:20:36;;;;;;;17.42;4.95;;;5.10;55.40;;;;;;5071489;28;20039;-73
2023/01/22 11:23:08;;;;;;;21.90;6.05;;;5.40;56.70;;;;;;5071230;28;20020;-77
2023/01/22 11:25:43;;;;;;;21.58;5.00;;;5.20;55.80;;;;;;5069640;28;20378;-74
2023/01/22 11:28:20;;;;;;;18.17;5.15;;;5.20;56.90;;;;;;5067425;28;20033;-73
2023/01/22 11:31:10;;;;;;;28.85;6.55;;;5.10;59.30;;;;;;5069537;28;20517;-74
2023/01/22 11:34:03;;;;;;;22.85;5.90;;;5.10;62.20;;;;;;5069799;28;20013;-72
2023/01/22 11:36:44;;;;;;;21.33;4.20;;;5.10;61.70;;;;;;5069380;28;20497;-73
2023/01/22 11:39:47;;;;;;;15.85;4.60;;;5.10;64.90;;;;;;5069975;28;20032;-72
2023/01/22 11:42:30;;;;;;;16.90;4.55;;;5.10;64.50;;;;;;5069332;28;20219;-72
2023/01/22 11:45:15;;;;;;;23.08;4.55;;;5.10;66.70;;;;;;5068834;28;20023;-73
2023/01/22 11:48:04;;;;;;;17.05;5.70;;;5.30;64.90;;;;;;5069907;28;20024;-73
2023/01/22 11:51:04;;;;;;;12.25;4.13;;;5.20;64.90;;;;;;5070665;28;20572;-75
2023/01/22 11:53:53;;;;;;;18.25;5.30;;;5.30;65.00;;;;;;5048919;28;20032;-74
2023/01/22 11:56:30;;;;;;;23.35;5.55;;;5.10;67.40;;;;;;5072027;28;20015;-75
2023/01/22 11:59:13;;;;;;;22.55;5.70;;;5.10;68.30;;;;;;5071601;28;20016;-71
2023/01/22 12:01:47;;;;;;;20.25;4.55;;;5.10;63.30;;;;;;5067905;28;20470;-73
2023/01/22 12:04:32;;;;;;;24.10;4.88;;;5.20;65.80;;;;;;5070171;28;20021;-72
2023/01/22 12:07:16;;;;;;;18.40;3.80;;;5.20;64.10;;;;;;5067544;28;20021;-74
2023/01/22 12:09:58;;;;;;;21.02;6.00;;;5.20;59.90;;;;;;5070605;28;20064;-74
2023/01/22 12:12:53;;;;;;;26.23;5.75;;;5.30;61.80;;;;;;5069144;28;20025;-72
2023/01/22 12:15:19;;;;;;;;;;;5.30;61.40;;;;;;5069186;28;20020;-72
2023/01/22 12:17:50;;;;;;;13.57;3.85;;;5.30;59.50;;;;;;5052137;28;19905;-72
2023/01/22 12:20:19;;;;;;;16.88;4.38;;;5.30;58.20;;;;;;5071724;28;20037;-77
2023/01/22 12:22:54;;;;;;;21.77;4.15;;;5.30;58.50;;;;;;5070687;28;20027;-76
2023/01/22 12:25:37;;;;;;;14.68;4.47;;;5.30;61.00;;;;;;5071835;28;20070;-73
2023/01/22 12:28:09;;;;;;;22.05;4.80;;;5.30;60.90;;;;;;5052574;28;20025;-75
2023/01/22 12:30:42;;;;;;;19.67;4.32;;;5.40;55.80;;;;;;5061841;28;20031;-75
2023/01/22 12:33:13;;;;;;;28.73;4.53;;;5.50;52.00;;;;;;5058784;28;20020;-73
2023/01/22 12:35:39;;;;;;;27.60;5.05;;;5.30;54.10;;;;;;5070879;28;20024;-74
2023/01/22 12:38:48;;;;;;;20.00;4.75;;;5.30;55.20;;;;;;5070287;28;20029;-73
2023/01/22 12:41:31;;;;;;;18.88;4.55;;;5.40;53.70;;;;;;5059705;28;20567;-73
2023/01/22 12:44:02;;;;;;;22.27;5.05;;;5.40;53.50;;;;;;5070541;28;20009;-74
2023/01/22 12:47:02;;;;;;;21.55;4.97;;;5.40;52.50;;;;;;5071635;28;20040;-75
2023/01/22 12:49:28;;;;;;;44.25;11.70;;;5.50;50.20;;;;;;5058115;28;20090;-73
2023/01/22 12:51:55;;;;;;;22.98;4.72;;;5.60;51.60;;;;;;5071591;28;20470;-73
2023/01/22 12:54:32;;;;;;;33.13;7.78;;;5.50;49.50;;;;;;5072958;28;20017;-76
2023/01/22 12:57:16;;;;;;;19.00;4.55;;;5.50;47.90;;;;;;5076656;28;20024;-75
2023/01/22 12:59:53;;;;;;;22.60;4.07;;;5.50;51.40;;;;;;5072093;28;20482;-73
2023/01/22 13:02:29;;;;;;;32.53;3.95;;;5.50;52.50;;;;;;5071450;28;20032;-73
2023/01/22 13:04:56;;;;;;;18.10;3.58;;;5.50;51.00;;;;;;5075467;28;20112;-74